Time;durP1;ratioP1;P1;durP2;ratioP2;P2;SDS_P1;SDS_P2;PMS_P1;PMS_P2;Temp;Humidity;BMP_temperature;BMP_pressure;BME280_temperature;BME280_humidity;BME280_pressure;Samples;Min_cycle;Max_cycle;Signal;HPM_P1;HPM_P2
2023/09/19 00:01:08;;;;;;;4.93;1.92;;;16.30;99.90;;;;;;5020476;28;20139;-55
2023/09/19 00:03:37;;;;;;;14.73;2.33;;;16.30;99.90;;;;;;5022456;28;20453;-54
2023/09/19 00:06:04;;;;;;;4.95;2.15;;;16.30;99.90;;;;;;5026866;28;20057;-55
2023/09/19 00:08:30;;;;;;;12.30;3.20;;;16.30;99.90;;;;;;5025021;28;20514;-56
2023/09/19 00:10:56;;;;;;;13.35;2.70;;;16.30;99.90;;;;;;5024664;28;20483;-53
2023/09/19 00:13:22;;;;;;;12.35;1.83;;;16.30;99.90;;;;;;5025038;28;20043;-51
2023/09/19 00:15:48;;;;;;;6.20;2.28;;;16.30;99.90;;;;;;5025822;28;20079;-54
2023/09/19 00:18:15;;;;;;;10.48;2.22;;;16.30;99.90;;;;;;5018414;28;20043;-54
2023/09/19 00:20:41;;;;;;;2.38;1.67;;;16.30;99.90;;;;;;5024699;28;20036;-56
2023/09/19 00:23:10;;;;;;;7.97;2.17;;;16.20;99.90;;;;;;5031814;28;20060;-55
2023/09/19 00:25:37;;;;;;;9.05;2.30;;;16.20;99.90;;;;;;5030513;28;20075;-53
2023/09/19 00:28:03;;;;;;;9.98;2.10;;;16.20;99.90;;;;;;5024524;28;20488;-50
2023/09/19 00:30:29;;;;;;;7.32;1.67;;;16.20;99.90;;;;;;5022437;28;20136;-54
2023/09/19 00:32:54;;;;;;;11.77;2.60;;;16.20;99.90;;;;;;5029588;28;20100;-51
2023/09/19 00:35:27;;;;;;;9.00;1.88;;;16.20;99.90;;;;;;5023661;28;20056;-52
2023/09/19 00:37:53;;;;;;;14.77;2.97;;;16.10;99.90;;;;;;5029258;28;20051;-53
2023/09/19 00:40:19;;;;;;;9.13;2.08;;;16.20;99.90;;;;;;5025013;28;20036;-55
2023/09/19 00:42:46;;;;;;;8.02;2.22;;;16.20;99.90;;;;;;5023164;28;20037;-52
2023/09/19 00:45:14;;;;;;;10.63;2.15;;;16.20;99.90;;;;;;5024304;28;20030;-55
2023/09/19 00:47:41;;;;;;;13.48;2.25;;;16.10;99.90;;;;;;5021010;28;20488;-55
2023/09/19 00:50:08;;;;;;;11.27;2.38;;;16.20;99.90;;;;;;5016544;28;20041;-56
2023/09/19 00:52:38;;;;;;;6.85;2.20;;;16.10;99.90;;;;;;5024197;28;20416;-54
2023/09/19 00:55:06;;;;;;;11.43;2.58;;;16.10;99.90;;;;;;5020155;28;20021;-53
2023/09/19 00:57:32;;;;;;;11.02;3.05;;;16.10;99.90;;;;;;5023673;28;20484;-53
2023/09/19 00:59:59;;;;;;;10.50;2.70;;;16.10;99.90;;;;;;5027936;28;20139;-56
2023/09/19 01:02:27;;;;;;;7.13;2.72;;;16.10;99.90;;;;;;5020257;28;20151;-56
2023/09/19 01:04:53;;;;;;;5.88;1.60;;;16.20;99.90;;;;;;5023029;28;20174;-55
2023/09/19 01:07:19;;;;;;;12.85;2.65;;;16.20;99.90;;;;;;5026365;28;20048;-53
2023/09/19 01:09:44;;;;;;;11.52;2.70;;;16.20;99.90;;;;;;5017393;28;20080;-54
2023/09/19 01:12:17;;;;;;;11.98;2.42;;;16.30;99.90;;;;;;5021626;28;20144;-56
2023/09/19 01:14:58;;;;;;;10.15;2.50;;;16.30;99.90;;;;;;5026906;28;20480;-53
2023/09/19 01:18:02;;;;;;;10.15;2.08;;;16.30;99.90;;;;;;5022240;28;20026;-50
2023/09/19 01:20:36;;;;;;;9.98;1.88;;;16.30;99.90;;;;;;5031689;28;20045;-55
2023/09/19 01:23:30;;;;;;;9.77;1.60;;;16.40;99.90;;;;;;5022867;28;20030;-54
2023/09/19 01:26:12;;;;;;;8.52;1.98;;;16.40;99.90;;;;;;5033275;28;20025;-57
2023/09/19 01:28:57;;;;;;;5.05;1.67;;;16.40;99.90;;;;;;5021476;28;20029;-55
2023/09/19 01:31:24;;;;;;;15.75;2.22;;;16.40;99.90;;;;;;5022251;28;20026;-55
2023/09/19 01:33:59;;;;;;;9.73;1.80;;;16.40;99.90;;;;;;5026613;28;20021;-55
2023/09/19 01:36:26;;;;;;;9.00;2.35;;;16.40;99.90;;;;;;5023140;28;20030;-54
2023/09/19 01:38:53;;;;;;;10.20;2.22;;;16.30;99.90;;;;;;5016283;28;20044;-51
2023/09/19 01:41:29;;;;;;;6.95;2.13;;;16.30;99.90;;;;;;5025610;28;20161;-56
2023/09/19 01:43:56;;;;;;;15.00;2.67;;;16.30;99.90;;;;;;5027368;28;20409;-54
2023/09/19 01:46:27;;;;;;;12.57;2.22;;;16.30;99.90;;;;;;5024397;28;20021;-51
2023/09/19 01:49:09;;;;;;;8.85;1.90;;;16.30;99.90;;;;;;5020108;28;20020;-52
2023/09/19 01:52:12;;;;;;;13.65;2.60;;;16.30;99.90;;;;;;5022146;28;20455;-56
2023/09/19 01:54:51;;;;;;;8.63;1.92;;;16.30;99.90;;;;;;5018702;28;20139;-56
2023/09/19 01:57:35;;;;;;;16.33;2.13;;;16.30;99.90;;;;;;5029828;28;20112;-51
2023/09/19 02:00:06;;;;;;;7.25;2.28;;;16.30;99.90;;;;;;5025116;28;20026;-54
2023/09/19 02:02:41;;;;;;;11.45;2.17;;;16.20;99.90;;;;;;5024153;28;20030;-54
2023/09/19 02:05:08;;;;;;;9.40;1.88;;;16.20;99.90;;;;;;5020563;28;20026;-52
2023/09/19 02:07:33;;;;;;;6.53;1.85;;;16.20;99.90;;;;;;5017221;28;20079;-51
2023/09/19 02:10:05;;;;;;;11.23;1.75;;;16.20;99.90;;;;;;5026726;28;20450;-55
2023/09/19 02:12:30;;;;;;;13.73;2.70;;;16.20;99.90;;;;;;5025298;28;20044;-55
2023/09/19 02:14:57;;;;;;;8.77;2.05;;;16.20;99.90;;;;;;5027332;28;20041;-56
2023/09/19 02:17:25;;;;;;;10.38;2.20;;;16.20;99.90;;;;;;5022859;28;20119;-58
2023/09/19 02:19:55;;;;;;;15.60;1.98;;;16.10;99.90;;;;;;5022415;28;20156;-52
2023/09/19 02:22:22;;;;;;;9.93;2.60;;;;;;;;;;5023928;28;20108;-51
2023/09/19 02:24:48;;;;;;;9.70;2.22;;;;;;;;;;5024754;28;20033;-57
2023/09/19 02:27:16;;;;;;;9.35;2.22;;;;;;;;;;5029552;28;20017;-51
2023/09/19 02:29:42;;;;;;;13.68;2.45;;;;;;;;;;5020769;28;20555;-55
2023/09/19 02:32:09;;;;;;;14.50;2.63;;;;;;;;;;5026025;28;20057;-56
2023/09/19 02:34:36;;;;;;;11.68;2.38;;;;;;;;;;5021496;28;20053;-54
2023/09/19 02:37:04;;;;;;;16.40;2.95;;;;;;;;;;5016743;28;20423;-52
2023/09/19 02:39:30;;;;;;;17.98;2.35;;;;;;;;;;5026347;28;20025;-55
2023/09/19 02:41:56;;;;;;;8.48;1.95;;;;;;;;;;5022507;28;20105;-55
2023/09/19 02:44:23;;;;;;;10.40;2.15;;;;;;;;;;5023809;28;20392;-57
2023/09/19 02:46:49;;;;;;;10.50;2.70;;;;;;;;;;5026846;28;20034;-56
2023/09/19 02:49:15;;;;;;;13.23;1.83;;;;;;;;;;5025598;28;20028;-52
2023/09/19 02:51:41;;;;;;;14.07;2.20;;;;;;;;;;5031462;28;20017;-55
2023/09/19 02:54:07;;;;;;;15.85;2.17;;;;;;;;;;5028795;28;20030;-53
2023/09/19 02:56:35;;;;;;;16.02;2.00;;;;;;;;;;5023691;28;20040;-53
2023/09/19 02:59:01;;;;;;;13.70;2.17;;;;;;;;;;5027206;28;20034;-56
2023/09/19 03:01:28;;;;;;;11.00;2.20;;;;;;;;;;5026052;28;20126;-53
2023/09/19 03:03:54;;;;;;;10.80;1.77;;;;;;;;;;5024824;28;20711;-53
2023/09/19 03:06:21;;;;;;;19.50;2.60;;;;;;;;;;5025882;28;20038;-53
2023/09/19 03:08:48;;;;;;;12.25;1.60;;;;;;;;;;5020617;28;20400;-53
2023/09/19 03:11:16;;;;;;;13.38;2.33;;;;;;;;;;5018937;28;20043;-55
2023/09/19 03:13:42;;;;;;;11.10;2.42;;;;;;;;;;5025113;28;20038;-52
2023/09/19 03:16:08;;;;;;;13.73;2.25;;;;;;;;;;5021447;28;20545;-57
2023/09/19 03:18:35;;;;;;;13.82;2.33;;;;;;;;;;5021297;28;20033;-54
2023/09/19 03:21:01;;;;;;;18.75;2.63;;;;;;;;;;5025221;28;20415;-53
2023/09/19 03:23:27;;;;;;;17.55;2.50;;;;;;;;;;5022645;28;20026;-54
2023/09/19 03:25:54;;;;;;;14.93;2.50;;;;;;;;;;5023642;28;20022;-55
2023/09/19 03:28:21;;;;;;;11.73;2.03;;;;;;;;;;5023107;28;20022;-55
2023/09/19 03:30:47;;;;;;;11.35;2.80;;;;;;;;;;5017603;28;20060;-55
2023/09/19 03:33:13;;;;;;;20.38;2.60;;;;;;;;;;5019981;28;20480;-51
2023/09/19 03:35:40;;;;;;;13.65;2.38;;;;;;;;;;5023612;28;20171;-53
2023/09/19 03:38:06;;;;;;;19.50;2.90;;;;;;;;;;5021375;28;20038;-53
2023/09/19 03:40:32;;;;;;;11.38;2.53;;;;;;;;;;5025060;28;20036;-57
2023/09/19 03:43:01;;;;;;;14.43;2.65;;;;;;;;;;5031771;28;20030;-55
2023/09/19 03:45:27;;;;;;;10.82;2.40;;;;;;;;;;5024265;28;20418;-55
2023/09/19 03:47:53;;;;;;;13.55;2.58;;;;;;;;;;5018317;28;20032;-53
2023/09/19 03:50:19;;;;;;;13.60;2.28;;;;;;;;;;5034016;28;20033;-51
2023/09/19 03:52:45;;;;;;;13.23;2.58;;;;;;;;;;5023285;28;20030;-54
2023/09/19 03:55:11;;;;;;;18.75;2.50;;;;;;;;;;5022565;28;20032;-51
2023/09/19 03:57:38;;;;;;;8.68;2.35;;;;;;;;;;5027255;28;20030;-52
2023/09/19 04:00:05;;;;;;;12.98;2.55;;;16.10;99.90;;;;;;5020239;28;20034;-50
2023/09/19 04:02:33;;;;;;;21.27;2.70;;;15.40;99.90;;;;;;5014593;28;20559;-53
2023/09/19 04:04:58;;;;;;;10.07;2.10;;;15.30;99.90;;;;;;5024657;28;20061;-50
2023/09/19 04:07:25;;;;;;;30.63;3.17;;;15.30;99.90;;;;;;5024590;28;20056;-53
2023/09/19 04:09:53;;;;;;;20.10;2.80;;;15.30;99.90;;;;;;5029132;28;20480;-53
2023/09/19 04:12:19;;;;;;;16.13;2.90;;;15.30;99.90;;;;;;5023569;28;20025;-53
2023/09/19 04:14:44;;;;;;;13.95;2.67;;;15.30;99.90;;;;;;5017505;28;20076;-57
2023/09/19 04:17:10;;;;;;;13.05;2.00;;;15.20;99.90;;;;;;5031085;28;20033;-55
2023/09/19 04:19:36;;;;;;;27.63;3.53;;;15.20;99.90;;;;;;5023260;28;20082;-54
2023/09/19 04:22:03;;;;;;;17.52;3.22;;;15.30;99.90;;;;;;5025525;28;20027;-51
2023/09/19 04:24:28;;;;;;;11.93;3.17;;;15.30;99.90;;;;;;5022429;28;20040;-52
2023/09/19 04:26:54;;;;;;;15.20;3.10;;;15.30;99.90;;;;;;5025215;28;20109;-54
2023/09/19 04:29:20;;;;;;;18.65;3.40;;;15.30;99.90;;;;;;5029532;28;20500;-53
2023/09/19 04:31:45;;;;;;;14.45;2.58;;;15.20;99.90;;;;;;5017593;28;20029;-51
2023/09/19 04:34:17;;;;;;;18.85;3.33;;;15.20;99.90;;;;;;5019212;28;20083;-49
2023/09/19 04:36:43;;;;;;;23.67;2.83;;;15.10;99.90;;;;;;5027435;28;20017;-56
2023/09/19 04:39:10;;;;;;;12.65;2.85;;;15.10;99.90;;;;;;5028862;28;20057;-55
2023/09/19 04:41:38;;;;;;;17.60;2.67;;;15.10;99.90;;;;;;5023648;28;20026;-55
2023/09/19 04:44:05;;;;;;;8.45;1.90;;;15.20;99.90;;;;;;5023598;28;20053;-54
2023/09/19 04:46:30;;;;;;;14.73;2.58;;;15.20;99.90;;;;;;5021223;28;20101;-54
2023/09/19 04:48:56;;;;;;;10.98;2.88;;;15.20;99.90;;;;;;5018733;28;20124;-54
2023/09/19 04:51:22;;;;;;;10.48;2.10;;;15.20;99.90;;;;;;5016082;28;20048;-56
2023/09/19 04:53:48;;;;;;;19.55;3.85;;;15.20;99.90;;;;;;5024419;28;20022;-54
2023/09/19 04:56:13;;;;;;;11.77;2.50;;;15.20;99.90;;;;;;5023894;28;20022;-54
2023/09/19 04:58:39;;;;;;;10.75;2.92;;;15.10;99.90;;;;;;5015279;28;20029;-54
2023/09/19 05:01:04;;;;;;;14.63;2.30;;;15.10;99.90;;;;;;5017288;28;20348;-55
2023/09/19 05:03:30;;;;;;;22.52;3.35;;;15.10;99.90;;;;;;5023098;28;20048;-55
2023/09/19 05:05:55;;;;;;;22.38;3.70;;;15.20;99.90;;;;;;5024252;28;20060;-56
2023/09/19 05:08:22;;;;;;;16.48;2.65;;;15.20;99.90;;;;;;5024578;28;20063;-54
2023/09/19 05:10:48;;;;;;;18.95;3.20;;;15.20;99.90;;;;;;5026835;28;20503;-52
2023/09/19 05:13:14;;;;;;;15.48;3.42;;;15.10;99.90;;;;;;5021475;28;20022;-54
2023/09/19 05:15:40;;;;;;;16.67;3.00;;;15.20;99.90;;;;;;5023306;28;20430;-57
2023/09/19 05:18:06;;;;;;;7.68;2.42;;;15.10;99.90;;;;;;5028867;28;20115;-50
2023/09/19 05:20:33;;;;;;;15.77;2.63;;;15.10;99.90;;;;;;5020111;28;20036;-49
2023/09/19 05:23:02;;;;;;;13.48;2.67;;;15.00;99.90;;;;;;5020574;28;20025;-55
2023/09/19 05:25:38;;;;;;;12.40;3.28;;;15.00;99.90;;;;;;5023101;28;20021;-53
2023/09/19 05:28:06;;;;;;;12.55;2.97;;;15.00;99.90;;;;;;5021485;28;20037;-49
2023/09/19 05:30:32;;;;;;;8.35;2.58;;;15.00;99.90;;;;;;5026982;28;20037;-51
2023/09/19 05:32:58;;;;;;;15.25;3.17;;;14.90;99.90;;;;;;5021740;28;20026;-54
2023/09/19 05:35:24;;;;;;;14.70;2.80;;;15.00;99.90;;;;;;5021914;28;20028;-51
2023/09/19 05:37:55;;;;;;;13.38;3.33;;;15.00;99.90;;;;;;5028905;28;20103;-52
2023/09/19 05:40:20;;;;;;;14.85;2.65;;;14.90;99.90;;;;;;5022972;28;20030;-49
2023/09/19 05:42:47;;;;;;;20.85;3.83;;;14.90;99.90;;;;;;5024528;28;20033;-50
2023/09/19 05:45:13;;;;;;;15.88;2.78;;;14.90;99.90;;;;;;5013291;28;20038;-53
2023/09/19 05:47:41;;;;;;;17.15;2.63;;;14.90;99.90;;;;;;5019822;28;20034;-54
2023/09/19 05:50:08;;;;;;;12.80;2.33;;;14.90;99.90;;;;;;5013278;28;20450;-54
2023/09/19 05:52:37;;;;;;;16.42;2.83;;;14.90;99.90;;;;;;5022125;28;20026;-49
2023/09/19 05:55:06;;;;;;;15.82;3.13;;;14.90;99.90;;;;;;5018063;28;20552;-52
2023/09/19 05:57:32;;;;;;;9.25;2.53;;;14.90;99.90;;;;;;5019467;28;20052;-55
2023/09/19 05:59:58;;;;;;;11.27;2.65;;;15.00;99.90;;;;;;5019542;28;20040;-51
2023/09/19 06:02:26;;;;;;;14.63;2.95;;;14.90;99.90;;;;;;5026800;28;20033;-54
2023/09/19 06:04:53;;;;;;;11.07;2.30;;;14.90;99.90;;;;;;5021315;28;20061;-56
2023/09/19 06:07:18;;;;;;;15.15;3.15;;;14.90;99.90;;;;;;5018488;28;20113;-50
2023/09/19 06:09:44;;;;;;;14.55;2.72;;;14.90;99.90;;;;;;5021332;28;20109;-54
2023/09/19 06:12:09;;;;;;;12.75;2.72;;;15.00;99.90;;;;;;5015907;28;20034;-55
2023/09/19 06:14:35;;;;;;;12.38;3.00;;;15.00;99.90;;;;;;5018891;28;20268;-50
2023/09/19 06:17:00;;;;;;;9.63;2.67;;;15.00;99.90;;;;;;5018417;28;20033;-57
2023/09/19 06:19:26;;;;;;;14.13;3.13;;;15.00;99.90;;;;;;5017943;28;20429;-55
2023/09/19 06:21:53;;;;;;;16.92;2.70;;;15.00;99.90;;;;;;5021501;28;20484;-54
2023/09/19 06:24:21;;;;;;;21.23;2.88;;;15.00;99.90;;;;;;5022625;28;20017;-51
2023/09/19 06:26:47;;;;;;;15.55;2.95;;;15.00;99.90;;;;;;5022710;28;20383;-51
2023/09/19 06:29:14;;;;;;;14.73;2.67;;;15.00;99.90;;;;;;5016055;28;20040;-55
2023/09/19 06:31:39;;;;;;;20.63;3.25;;;15.10;99.90;;;;;;5021937;28;20151;-51
2023/09/19 06:34:05;;;;;;;17.80;2.92;;;15.20;99.90;;;;;;5024789;28;20163;-56
2023/09/19 06:36:30;;;;;;;10.90;2.72;;;15.20;99.90;;;;;;5024595;28;20045;-56
2023/09/19 06:38:56;;;;;;;9.05;2.17;;;15.20;99.90;;;;;;5017796;28;20061;-56
2023/09/19 06:41:24;;;;;;;22.73;3.25;;;15.30;99.90;;;;;;5018896;28;20018;-52
2023/09/19 06:43:53;;;;;;;13.32;2.40;;;15.30;99.90;;;;;;5020851;28;20450;-53
2023/09/19 06:46:18;;;;;;;10.63;2.83;;;15.30;99.90;;;;;;5021037;28;20021;-50
2023/09/19 06:48:44;;;;;;;13.80;2.90;;;15.30;99.90;;;;;;5017376;28;20399;-53
2023/09/19 06:51:10;;;;;;;19.35;3.22;;;15.40;99.90;;;;;;5021483;28;20128;-56
2023/09/19 06:53:36;;;;;;;19.42;4.30;;;15.40;99.90;;;;;;5023332;28;20402;-54
2023/09/19 06:56:02;;;;;;;14.73;3.15;;;15.50;99.90;;;;;;5015468;28;20021;-55
2023/09/19 06:58:27;;;;;;;11.13;2.35;;;15.50;99.90;;;;;;5018331;28;20037;-56
2023/09/19 07:00:54;;;;;;;12.60;2.55;;;15.50;99.90;;;;;;5024839;28;20102;-51
2023/09/19 07:03:21;;;;;;;14.10;3.00;;;15.70;99.90;;;;;;5011729;28;20145;-50
2023/09/19 07:05:48;;;;;;;13.00;3.22;;;15.70;99.90;;;;;;5018313;28;20026;-54
2023/09/19 07:08:15;;;;;;;15.80;2.90;;;15.70;99.90;;;;;;5022694;28;20022;-51
2023/09/19 07:10:41;;;;;;;17.35;2.72;;;15.70;99.90;;;;;;5021276;28;20124;-56
2023/09/19 07:13:11;;;;;;;16.75;2.83;;;15.80;99.90;;;;;;5026427;28;20527;-53
2023/09/19 07:15:41;;;;;;;19.88;2.72;;;15.90;99.90;;;;;;5020943;28;20396;-53
2023/09/19 07:18:10;;;;;;;12.00;2.65;;;15.90;99.90;;;;;;5022567;28;20032;-56
2023/09/19 07:20:36;;;;;;;16.77;2.75;;;15.90;99.90;;;;;;5020807;28;20033;-53
2023/09/19 07:23:02;;;;;;;12.35;2.53;;;16.00;99.90;;;;;;5027802;28;20033;-53
2023/09/19 07:25:28;;;;;;;18.38;2.42;;;16.00;99.90;;;;;;5020521;28;20037;-57
2023/09/19 07:28:00;;;;;;;17.13;3.00;;;16.00;99.90;;;;;;5025173;28;20033;-54
2023/09/19 07:30:26;;;;;;;22.67;2.30;;;16.10;99.90;;;;;;5021514;28;20030;-57
2023/09/19 07:32:52;;;;;;;12.23;3.05;;;16.20;99.90;;;;;;5024287;28;20037;-57
2023/09/19 07:35:19;;;;;;;15.82;3.13;;;16.20;99.90;;;;;;5017145;28;20057;-53
2023/09/19 07:37:49;;;;;;;15.43;2.75;;;16.30;99.90;;;;;;5016440;28;20033;-53
2023/09/19 07:40:15;;;;;;;12.55;2.20;;;16.30;99.90;;;;;;5019214;28;20561;-54
2023/09/19 07:42:40;;;;;;;11.55;2.63;;;16.30;99.90;;;;;;5014713;28;20029;-54
2023/09/19 07:45:14;;;;;;;12.00;2.47;;;16.40;99.90;;;;;;5021709;28;20396;-58
2023/09/19 07:47:49;;;;;;;15.02;2.97;;;16.40;99.90;;;;;;5027086;28;20079;-57
2023/09/19 07:50:16;;;;;;;11.30;2.20;;;16.40;99.90;;;;;;5020514;28;20446;-55
2023/09/19 07:52:42;;;;;;;9.23;2.22;;;16.50;99.90;;;;;;5020888;28;20113;-54
2023/09/19 07:55:16;;;;;;;14.90;2.35;;;16.60;99.90;;;;;;5015159;28;20022;-54
2023/09/19 07:57:42;;;;;;;12.30;2.45;;;16.60;99.90;;;;;;5022561;28;20040;-55
2023/09/19 08:00:09;;;;;;;15.77;2.72;;;16.70;99.90;;;;;;5027654;28;20041;-58
2023/09/19 08:02:38;;;;;;;13.40;2.70;;;16.70;99.90;;;;;;5019669;28;20515;-57
2023/09/19 08:05:06;;;;;;;15.20;3.13;;;16.80;99.90;;;;;;5028071;28;20022;-59
2023/09/19 08:07:32;;;;;;;16.73;2.53;;;16.80;99.90;;;;;;5023156;28;20018;-59
2023/09/19 08:09:58;;;;;;;12.98;2.83;;;16.90;99.90;;;;;;5023854;28;20025;-58
2023/09/19 08:12:24;;;;;;;19.40;3.15;;;17.00;99.90;;;;;;5024060;28;20026;-58
2023/09/19 08:14:50;;;;;;;9.05;1.95;;;17.10;99.90;;;;;;5011991;28;20030;-58
2023/09/19 08:17:16;;;;;;;9.70;2.00;;;17.10;99.90;;;;;;5021395;28;20069;-58
2023/09/19 08:19:42;;;;;;;13.63;2.72;;;17.20;99.90;;;;;;5025870;28;20060;-55
2023/09/19 08:22:10;;;;;;;17.52;2.70;;;17.10;99.90;;;;;;5022737;28;20017;-56
2023/09/19 08:24:36;;;;;;;9.95;2.70;;;17.20;99.90;;;;;;5029925;28;20091;-57
2023/09/19 08:27:04;;;;;;;7.43;2.53;;;17.30;99.90;;;;;;5025604;28;20428;-57
2023/09/19 08:29:30;;;;;;;11.45;1.83;;;17.40;99.90;;;;;;5028480;28;20022;-58
2023/09/19 08:31:57;;;;;;;17.60;2.50;;;17.50;99.90;;;;;;5021690;28;20096;-57
2023/09/19 08:34:26;;;;;;;19.42;3.17;;;17.60;99.90;;;;;;5025624;28;20076;-57
2023/09/19 08:36:58;;;;;;;15.63;2.30;;;17.70;99.90;;;;;;5025258;28;20040;-59
2023/09/19 08:39:25;;;;;;;12.60;2.72;;;17.70;99.90;;;;;;5024288;28;20558;-57
2023/09/19 08:41:58;;;;;;;15.93;2.55;;;17.70;99.90;;;;;;5026538;28;20033;-57
2023/09/19 08:44:24;;;;;;;16.60;2.35;;;17.80;99.90;;;;;;5026494;28;20072;-55
2023/09/19 08:46:55;;;;;;;15.82;3.15;;;17.80;99.90;;;;;;5019961;28;20443;-58
2023/09/19 08:49:35;;;;;;;12.10;2.53;;;17.80;99.90;;;;;;5022978;28;20030;-56
2023/09/19 08:52:19;;;;;;;13.40;2.78;;;17.80;99.90;;;;;;5026258;28;20491;-57
2023/09/19 08:54:48;;;;;;;16.33;3.33;;;17.90;99.90;;;;;;5011603;28;20058;-54
2023/09/19 08:57:21;;;;;;;10.90;2.38;;;18.00;99.90;;;;;;5020203;28;20527;-55
2023/09/19 08:59:50;;;;;;;9.65;2.38;;;18.00;99.90;;;;;;5019640;28;20040;-54
2023/09/19 09:02:18;;;;;;;16.15;2.53;;;18.00;99.90;;;;;;5023597;28;20030;-56
2023/09/19 09:04:45;;;;;;;8.60;2.30;;;18.20;99.90;;;;;;5017116;28;20083;-49
2023/09/19 09:07:19;;;;;;;16.25;2.67;;;18.30;99.90;;;;;;5015039;28;20028;-55
2023/09/19 09:09:45;;;;;;;8.85;2.22;;;18.40;99.90;;;;;;5017785;28;20022;-54
2023/09/19 09:12:15;;;;;;;14.25;3.03;;;18.50;99.90;;;;;;5014984;28;20124;-56
2023/09/19 09:14:50;;;;;;;8.68;2.83;;;18.50;99.90;;;;;;5013040;28;20061;-54
2023/09/19 09:17:20;;;;;;;11.93;2.38;;;18.30;99.90;;;;;;5016240;28;20036;-55
2023/09/19 09:19:47;;;;;;;10.55;2.58;;;18.40;99.90;;;;;;5013389;28;20384;-58
2023/09/19 09:22:13;;;;;;;13.10;2.22;;;18.30;99.90;;;;;;5015081;28;20108;-53
2023/09/19 09:24:58;;;;;;;15.20;2.35;;;18.40;99.90;;;;;;5016563;28;20587;-51
2023/09/19 09:27:24;;;;;;;12.52;2.13;;;18.50;99.90;;;;;;5017013;28;20075;-49
2023/09/19 09:29:51;;;;;;;8.15;2.00;;;18.50;99.90;;;;;;5014272;28;20037;-56
2023/09/19 09:32:39;;;;;;;7.82;2.17;;;18.70;99.90;;;;;;5013659;28;20061;-55
2023/09/19 09:35:10;;;;;;;21.42;2.30;;;18.70;99.90;;;;;;5015042;28;20076;-54
2023/09/19 09:37:38;;;;;;;12.90;2.55;;;18.80;99.90;;;;;;5013869;28;20598;-58
2023/09/19 09:42:39;;;;;;;10.68;2.45;;;19.00;99.90;;;;;;5014750;28;20033;-57
2023/09/19 09:45:13;;;;;;;8.15;1.98;;;19.00;99.90;;;;;;5016625;28;20045;-57
2023/09/19 09:47:54;;;;;;;10.67;2.07;;;18.90;99.90;;;;;;5013642;28;20056;-57
2023/09/19 09:50:44;;;;;;;11.68;2.00;;;19.00;99.90;;;;;;5017559;28;20030;-53
2023/09/19 09:53:34;;;;;;;11.93;2.28;;;19.10;99.90;;;;;;5011807;28;20040;-57
2023/09/19 09:56:00;;;;;;;11.13;2.40;;;19.40;99.90;;;;;;5008076;28;20447;-56
2023/09/19 09:58:30;;;;;;;7.88;2.00;;;19.20;99.90;;;;;;5013110;28;20033;-50
2023/09/19 10:01:01;;;;;;;14.10;2.35;;;19.20;99.90;;;;;;5012794;28;20029;-60
2023/09/19 10:03:43;;;;;;;6.45;1.92;;;19.30;99.90;;;;;;5016733;28;20096;-54
2023/09/19 10:06:26;;;;;;;8.15;1.98;;;19.20;99.90;;;;;;5012398;28;20018;-54
2023/09/19 10:09:20;;;;;;;8.88;2.05;;;19.20;99.90;;;;;;5010427;28;20030;-56
2023/09/19 10:12:11;;;;;;;6.83;2.10;;;19.30;99.90;;;;;;5012843;28;20212;-55
2023/09/19 10:14:39;;;;;;;11.32;2.20;;;19.60;99.90;;;;;;5009346;28;20406;-55
2023/09/19 10:17:06;;;;;;;10.77;2.08;;;19.70;99.90;;;;;;5012335;28;20040;-59
2023/09/19 10:19:46;;;;;;;6.07;1.70;;;20.00;99.90;;;;;;5010709;28;20128;-54
2023/09/19 10:22:14;;;;;;;4.55;1.67;;;20.30;99.90;;;;;;5011261;28;20115;-57
2023/09/19 10:24:41;;;;;;;7.30;1.90;;;20.40;99.90;;;;;;5014580;28;21216;-56
2023/09/19 10:27:09;;;;;;;7.75;1.67;;;20.30;99.90;;;;;;5012891;28;20028;-55
2023/09/19 10:29:39;;;;;;;7.53;1.55;;;20.40;99.90;;;;;;5015699;28;20044;-56
2023/09/19 10:32:06;;;;;;;6.43;1.85;;;20.50;99.90;;;;;;5019403;28;20061;-59
2023/09/19 10:34:35;;;;;;;7.72;2.10;;;20.50;99.90;;;;;;5016571;28;20474;-56
2023/09/19 10:37:05;;;;;;;5.78;1.77;;;20.50;99.90;;;;;;5011197;28;20025;-55
2023/09/19 10:39:32;;;;;;;5.60;1.70;;;20.40;99.90;;;;;;5015581;28;20041;-55
2023/09/19 10:42:05;;;;;;;5.45;1.70;;;20.40;99.90;;;;;;5017359;28;20025;-59
2023/09/19 10:44:32;;;;;;;10.07;1.67;;;20.70;99.90;;;;;;5013952;28;20030;-56
2023/09/19 10:46:59;;;;;;;9.88;2.05;;;20.90;99.90;;;;;;5013537;28;20164;-57
2023/09/19 10:49:24;;;;;;;7.13;2.05;;;20.70;99.90;;;;;;5015011;28;20029;-58
2023/09/19 10:51:55;;;;;;;6.68;2.17;;;20.70;99.90;;;;;;5009198;28;20490;-57
2023/09/19 10:54:26;;;;;;;5.53;1.73;;;20.80;99.90;;;;;;5013639;28;20022;-49
2023/09/19 10:56:53;;;;;;;7.30;2.20;;;20.90;99.90;;;;;;5017616;28;20041;-54
2023/09/19 10:59:21;;;;;;;6.30;1.80;;;20.90;99.90;;;;;;5016431;28;20061;-54
2023/09/19 11:01:58;;;;;;;8.35;2.00;;;20.70;99.90;;;;;;5014188;28;20836;-56
2023/09/19 11:04:33;;;;;;;9.75;1.70;;;20.80;99.90;;;;;;5018656;28;20028;-52
2023/09/19 11:07:04;;;;;;;12.85;2.67;;;20.60;99.90;;;;;;5015761;28;20562;-58
2023/09/19 11:09:54;;;;;;;7.82;1.90;;;20.80;99.90;;;;;;5015781;28;20033;-59
2023/09/19 11:12:54;;;;;;;8.20;2.13;;;21.00;99.90;;;;;;5014361;28;20034;-57
2023/09/19 11:15:55;;;;;;;9.35;2.03;;;21.10;99.90;;;;;;5019926;28;20100;-53
2023/09/19 11:18:42;;;;;;;9.38;2.28;;;21.10;99.90;;;;;;5014458;28;20037;-58
2023/09/19 11:21:30;;;;;;;8.98;2.05;;;20.60;99.90;;;;;;5013803;28;20056;-53
2023/09/19 11:24:24;;;;;;;8.75;1.60;;;20.80;99.90;;;;;;5014246;28;20148;-55
2023/09/19 11:26:52;;;;;;;8.30;1.93;;;21.00;99.90;;;;;;5016482;28;20030;-56
2023/09/19 11:29:31;;;;;;;9.73;1.75;;;21.30;99.90;;;;;;5018597;28;20354;-57
2023/09/19 11:31:59;;;;;;;14.93;2.42;;;21.50;99.90;;;;;;5017433;28;20033;-57
2023/09/19 11:34:39;;;;;;;6.20;2.13;;;21.50;99.90;;;;;;5019345;28;20021;-53
2023/09/19 11:37:33;;;;;;;4.95;1.40;;;21.10;99.90;;;;;;5011944;28;20079;-56
2023/09/19 11:40:15;;;;;;;6.72;1.95;;;21.00;99.90;;;;;;5026122;28;20084;-52
2023/09/19 11:42:45;;;;;;;9.60;2.30;;;21.00;99.90;;;;;;5030202;28;20119;-54
2023/09/19 11:45:39;;;;;;;7.53;1.90;;;21.00;99.90;;;;;;5018323;28;20026;-55
2023/09/19 11:48:06;;;;;;;9.10;2.35;;;21.30;99.90;;;;;;5026660;28;20025;-56
2023/09/19 11:50:34;;;;;;;4.85;1.80;;;21.80;99.90;;;;;;5021441;28;20096;-52
2023/09/19 11:53:00;;;;;;;7.25;1.88;;;21.90;99.90;;;;;;5021292;28;20025;-54
2023/09/19 11:55:30;;;;;;;7.72;2.13;;;21.90;99.90;;;;;;5021349;28;20079;-57
2023/09/19 11:57:56;;;;;;;8.68;2.00;;;22.20;99.90;;;;;;5023012;28;20085;-54
2023/09/19 12:00:22;;;;;;;11.55;1.80;;;21.90;99.90;;;;;;5018679;28;20037;-56
2023/09/19 12:02:56;;;;;;;4.85;1.80;;;21.80;99.90;;;;;;5021903;28;20021;-56
2023/09/19 12:05:33;;;;;;;4.23;1.60;;;22.20;99.90;;;;;;5015997;28;20018;-58
2023/09/19 12:07:58;;;;;;;6.70;1.50;;;22.20;99.90;;;;;;5026063;28;20028;-56
2023/09/19 12:10:24;;;;;;;6.78;1.63;;;22.40;99.90;;;;;;5019561;28;20029;-56
2023/09/19 12:12:52;;;;;;;5.10;1.83;;;22.70;99.90;;;;;;5029696;28;20028;-59
2023/09/19 12:15:28;;;;;;;5.88;1.83;;;23.10;99.90;;;;;;5016639;28;20049;-57
2023/09/19 12:17:54;;;;;;;7.25;1.52;;;23.30;99.90;;;;;;5022351;28;20034;-59
2023/09/19 12:20:21;;;;;;;5.00;1.85;;;22.70;99.90;;;;;;5027318;28;20415;-57
2023/09/19 12:22:49;;;;;;;10.50;2.25;;;22.90;99.90;;;;;;5023416;28;20024;-51
2023/09/19 12:25:16;;;;;;;6.03;1.90;;;23.00;99.80;;;;;;5014747;28;20022;-57
2023/09/19 12:27:52;;;;;;;9.63;1.95;;;23.20;98.70;;;;;;5023142;28;20064;-54
2023/09/19 12:30:20;;;;;;;7.28;1.95;;;23.00;98.10;;;;;;5016789;28;20436;-58
2023/09/19 12:32:48;;;;;;;9.52;1.92;;;23.20;98.50;;;;;;5017975;28;20107;-56
2023/09/19 12:35:34;;;;;;;7.13;2.17;;;23.30;97.60;;;;;;5031371;28;20151;-58
2023/09/19 12:38:00;;;;;;;8.60;1.88;;;23.20;96.60;;;;;;5022508;28;20072;-57
2023/09/19 12:40:28;;;;;;;4.28;2.08;;;23.00;96.00;;;;;;5023319;28;20037;-59
2023/09/19 12:43:02;;;;;;;8.02;2.10;;;23.20;97.00;;;;;;5016328;28;20025;-54
2023/09/19 12:45:30;;;;;;;2.83;1.27;;;23.30;96.30;;;;;;5031851;28;20108;-56
2023/09/19 12:48:31;;;;;;;7.13;1.50;;;23.20;96.40;;;;;;5024779;28;20068;-56
2023/09/19 12:51:07;;;;;;;7.88;1.60;;;23.50;96.60;;;;;;5027595;28;20029;-57
2023/09/19 12:53:44;;;;;;;7.85;1.77;;;23.60;96.00;;;;;;5030079;28;20542;-56
2023/09/19 12:56:12;;;;;;;9.90;1.88;;;23.30;95.60;;;;;;5022264;28;20112;-58
2023/09/19 12:58:56;;;;;;;5.82;1.58;;;23.20;94.80;;;;;;5020162;28;20042;-57
2023/09/19 13:01:26;;;;;;;5.30;1.40;;;23.20;95.50;;;;;;5017113;28;20029;-56
2023/09/19 13:04:12;;;;;;;4.95;1.55;;;23.40;96.30;;;;;;5031224;28;20109;-53
2023/09/19 13:06:40;;;;;;;5.22;1.80;;;23.30;96.20;;;;;;5023628;28;20087;-54
2023/09/19 13:09:14;;;;;;;7.10;1.42;;;23.00;95.80;;;;;;5021686;28;20029;-58